Flight Track Log - Related Links

Times and Time Zones

All times are in EDT time to prevent confusion due to time zone crossing. See the ASQ168T flight status page for this flight to view local times or setup timezone preferences in your user account.

Time Position Orientation Groundspeed Altitude Reporting Facility
EDT Latitude Longitude Course Direction KTS MPH feet Rate Location/Type
Sun 08:29:21 PM 42.0000 -87.8833 66° East 157 181 1,500  Level Chicago TRACON
Sun 08:30:15 PM 42.0167 -87.8333 66° East 204 235 3,200 1,647 Climbing Chicago TRACON
Sun 08:32:45 PM 42.0092 -87.5983 92° East 276 318 7,100 1,726 Climbing Chicago Center
Sun 08:33:47 PM 41.9961 -87.4936 99° East 284 327 9,300 1,935 Climbing Chicago Center
Sun 08:34:49 PM 41.9831 -87.3811 99° East 301 346 11,100 1,935 Climbing Chicago Center
Sun 08:35:51 PM 41.9650 -87.2367 99° East 325 374 13,300 1,548 Climbing Chicago Center
Sun 08:36:53 PM 41.9508 -87.1081 98° East 347 399 14,300 1,056 Climbing Chicago Center
Sun 08:37:56 PM 41.9461 -86.9708 93° East 370 426 15,500 1,056 Climbing Chicago Center
Sun 08:38:58 PM 41.9481 -86.8281 89° East 382 440 16,500 968 Climbing Chicago Center
Sun 08:40:00 PM 41.9494 -86.6839 89° East 398 458 17,500 968 Climbing Chicago Center
Sun 08:41:02 PM 41.9536 -86.5033 88° East 404 465 18,500 1,016 Climbing Chicago Center
Sun 08:42:04 PM 41.9544 -86.3478 90° East 416 479 19,600 1,016 Climbing Chicago Center
Sun 08:43:06 PM 41.9533 -86.1897 90° East 424 488 20,600 968 Climbing Chicago Center
Sun 08:44:08 PM 41.9386 -86.0267 97° East 436 502 21,600 968 Climbing Chicago Center
Sun 08:45:10 PM 41.9222 -85.8628 98° East 441 507 22,600 1,016 Climbing Chicago Center
Sun 08:46:12 PM 41.9069 -85.6986 97° East 442 509 23,700 1,016 Climbing Chicago Center
Sun 08:47:14 PM 41.8908 -85.5333 97° East 442 509 24,700 1,065 Climbing Chicago Center
Sun 08:48:16 PM 41.8717 -85.3333 97° East 443 510 25,900 1,113 Climbing Chicago Center
Sun 08:49:18 PM 41.8544 -85.1675 98° East 443 510 27,000 1,000 Climbing Chicago Center
Sun 08:49:58 PM 41.8433 -85.0572 98° East 448 516 27,600 960 Climbing Cleveland Center
Sun 08:50:58 PM 41.8286 -84.8975 97° East 448 516 28,600 1,000 Climbing Cleveland Center
Sun 08:51:58 PM 41.8117 -84.7347 98° East 448 516 29,600 1,000 Climbing Cleveland Center
Sun 08:52:58 PM 41.7947 -84.5692 98° East 448 516 30,600 1,000 Climbing Cleveland Center
Sun 08:53:58 PM 41.7775 -84.4036 98° East 448 516 31,600 950 Climbing Cleveland Center
Sun 08:54:58 PM 41.7739 -84.2531 92° East 448 516 32,500 700 Climbing Cleveland Center
Sun 08:55:58 PM 41.7731 -84.0858 90° East 448 516 33,000 250 Climbing Cleveland Center
Sun 08:56:58 PM 41.7722 -83.9050 90° East 460 529 33,000  Level Cleveland Center
Sun 08:57:58 PM 41.7717 -83.6961 90° East 495 570 33,000  Level Cleveland Center
Sun 08:58:58 PM 41.7619 -83.5089 94° East 500 575 33,000  Level Cleveland Center
Sun 08:59:58 PM 41.7481 -83.3219 96° East 500 575 33,000  Level Cleveland Center
Sun 09:00:58 PM 41.7292 -83.1375 98° East 500 575 33,000  Level Cleveland Center
Sun 09:01:58 PM 41.7125 -82.9503 97° East 507 583 33,000  Level Cleveland Center
Sun 09:02:58 PM 41.6911 -82.7661 99° East 502 578 33,000  Level Cleveland Center
Sun 09:03:58 PM 41.6714 -82.5819 98° East 502 578 33,000  Level Cleveland Center
Sun 09:04:58 PM 41.6517 -82.4006 98° East 502 578 33,000  Level Cleveland Center
Sun 09:05:58 PM 41.6353 -82.2333 97° East 502 578 33,000  Level Cleveland Center
Sun 09:06:58 PM 41.6169 -82.0469 97° East 502 578 33,000  Level Cleveland Center
Sun 09:07:58 PM 41.5942 -81.8603 99° East 507 583 33,000  Level Cleveland Center
Sun 09:08:58 PM 41.5733 -81.6600 98° East 507 583 33,000  Level Cleveland Center
Sun 09:09:58 PM 41.5522 -81.4739 99° East 507 583 33,000  Level Cleveland Center
Sun 09:10:58 PM 41.5306 -81.2850 99° East 507 583 33,000  Level Cleveland Center
Sun 09:11:58 PM 41.5106 -81.1017 98° East 502 578 33,000  Level Cleveland Center
Sun 09:12:58 PM 41.4925 -80.9131 97° East 507 583 33,000  Level Cleveland Center
Sun 09:13:58 PM 41.4783 -80.7494 97° East 501 577 33,000  Level Cleveland Center
Sun 09:14:58 PM 41.4617 -80.5611 97° East 507 583 33,000  Level Cleveland Center
Sun 09:15:58 PM 41.4450 -80.3781 97° East 502 578 33,000  Level Cleveland Center
Sun 09:16:58 PM 41.4297 -80.1900 96° East 502 578 33,000  Level Cleveland Center
Sun 09:17:58 PM 41.4103 -80.0044 98° East 502 578 33,000  Level Cleveland Center
Sun 09:18:58 PM 41.3903 -79.8000 97° East 507 583 33,000  Level Cleveland Center
Sun 09:19:58 PM 41.3744 -79.6314 97° East 507 583 33,000 -550 Level Cleveland Center
Sun 09:20:58 PM 41.3539 -79.4269 98° East 501 577 31,900 -1,300 Descending Cleveland Center
Sun 09:21:58 PM 41.3353 -79.2475 98° East 501 577 30,400 -1,500 Descending Cleveland Center
Sun 09:22:58 PM 41.3161 -79.0653 98° East 501 577 28,900 -1,350 Descending Cleveland Center
Sun 09:23:58 PM 41.2969 -78.8833 98° East 501 577 27,700 -1,050 Descending Cleveland Center
Sun 09:24:58 PM 41.2775 -78.6989 98° East 501 577 26,800 -950 Descending Cleveland Center
Sun 09:25:58 PM 41.2556 -78.5144 99° East 501 577 25,800 -663 Descending Cleveland Center
Sun 09:27:41 PM 41.2200 -78.2025 99° East 503 579 25,000 -294 Descending New York Center
Sun 09:28:41 PM 41.1997 -78.0239 99° East 498 573 25,000  Level New York Center
Sun 09:29:43 PM 41.1775 -77.8422 99° East 493 567 25,000 -443 Level New York Center
Sun 09:30:43 PM 41.1483 -77.6656 102° East 493 567 24,100 -1,220 Descending New York Center
Sun 09:31:41 PM 41.1106 -77.4881 106° East 493 567 22,600 -1,475 Descending New York Center
Sun 09:32:41 PM 41.0739 -77.3219 106° East 493 567 21,200 -1,426 Descending New York Center
Sun 09:33:43 PM 41.0408 -77.1647 106° East 464 534 19,700 -1,400 Descending New York Center
Sun 09:34:41 PM 41.0069 -77.0183 107° East 440 506 18,400 -1,311 Descending New York Center
Sun 09:35:42 PM 40.9806 -76.8867 105° East 424 488 17,100 -1,230 Descending New York Center
Sun 09:36:43 PM 40.9467 -76.7328 106° East 407 468 15,900 -984 Descending New York Center
Sun 09:37:44 PM 40.9156 -76.6036 108° East 407 468 15,100 -814 Descending New York Center
Sun 09:38:41 PM 40.8836 -76.4497 105° East 402 463 14,300 -750 Descending New York Center
Sun 09:39:44 PM 40.8542 -76.3239 107° East 402 463 13,600 -744 Descending New York Center
Sun 09:40:42 PM 40.8197 -76.1675 106° East 409 471 12,800 -1,077 Descending New York Center
Sun 09:41:41 PM 40.7900 -76.0364 107° East 401 461 11,500 -1,400 Descending New York Center
Sun 09:42:42 PM 40.7619 -75.9164 107° East 364 419 10,000 -1,220 Descending New York Center
Sun 09:43:44 PM 40.7411 -75.8217 106° East 315 362 9,000 -1,311 Descending New York Center
Sun 09:44:41 PM 40.7375 -75.7064 92° East 290 334 7,400 -1,538 Descending New York Center
Sun 09:45:41 PM 40.7506 -75.5950 81° East 290 334 6,000 -1,388 Descending New York Center
Sun 09:46:42 PM 40.7672 -75.4919 78° East 295 339 4,600 -1,415 Descending New York Center
Sun 09:47:44 PM 40.7606 -75.3956 95° East 278 320 3,100 -1,140 Descending New York Center
Sun 09:48:43 PM 40.7122 -75.3514 145° Southeast 223 257 2,300 -872 Descending New York Center
Sun 09:49:41 PM 40.6839 -75.3850 222° Southwest 102 117 1,400 -550 Descending New York Center
Sun 09:50:43 PM 40.6586 -75.3942 195° South 102 117 1,200 3,800 Descending New York Center
Sun 09:51:41 PM 40.6311 -75.4061 198° South 102 117 9,000 3,900 Climbing New York Center
Sun 09:52:43 PM 40.6056 -75.4181 200° South 102 117 9,000  Level New York Center
Sun 09:53:41 PM 40.5781 -75.4297 198° South 102 117 9,000  Level New York Center
Sun 09:54:41 PM 40.5736 -75.4322 203° Southwest 102 117 9,000  Level New York Center

Login

Don't have an account? Register now (free) for customized features, flight alerts, and more!